PAL463 RKPK-RPLL
Flight info
| Callsign | PAL463 |
|---|---|
| Flight time | N/A |
| Altitude | 35000 |
| Route | BURIM3 BESNA Y209 IKE A582 POLIO POLIO3R |
| Aircraft | A321/M-SDE3FGHIRWY/LB1 |
Departure
| Time | N/A |
|---|---|
| Airport | Gimhae International Airport (RKPK) |
Arrival
| Time | 2026-05-06 15:25 |
|---|---|
| Airport | Ninoy Aquino International Airport (RPLL) |
| Time | Latitude | Longitude | Altitude | Speed | Heading |
|---|---|---|---|---|---|
| 2026-05-06 14:11 | 20.59633 | 125.03247 | 38008 ft | 445 kts | 207° |
| 2026-05-06 14:11 | 20.54190 | 125.00094 | 38007 ft | 447 kts | 206° |
| 2026-05-06 14:12 | 20.48703 | 124.96921 | 38007 ft | 451 kts | 206° |
| 2026-05-06 14:12 | 20.43182 | 124.93733 | 38007 ft | 456 kts | 206° |
| 2026-05-06 14:13 | 20.37605 | 124.90517 | 38007 ft | 461 kts | 206° |
| 2026-05-06 14:13 | 20.31971 | 124.87271 | 38007 ft | 466 kts | 206° |
| 2026-05-06 14:14 | 20.26248 | 124.83977 | 38007 ft | 471 kts | 207° |
| 2026-05-06 14:14 | 20.20477 | 124.80657 | 38008 ft | 474 kts | 208° |
| 2026-05-06 14:15 | 20.14676 | 124.77317 | 38009 ft | 476 kts | 208° |
| 2026-05-06 14:15 | 20.08897 | 124.73989 | 38009 ft | 476 kts | 208° |
| 2026-05-06 14:16 | 20.03091 | 124.70651 | 38009 ft | 476 kts | 208° |
| 2026-05-06 14:16 | 19.97280 | 124.67316 | 38008 ft | 476 kts | 208° |
| 2026-05-06 14:17 | 19.91481 | 124.63991 | 37997 ft | 476 kts | 208° |
| 2026-05-06 14:17 | 19.85665 | 124.60658 | 37975 ft | 476 kts | 208° |
| 2026-05-06 14:18 | 19.79878 | 124.57346 | 37950 ft | 476 kts | 208° |
| 2026-05-06 14:18 | 19.74075 | 124.54028 | 37935 ft | 476 kts | 208° |
| 2026-05-06 14:19 | 19.68276 | 124.50713 | 37928 ft | 476 kts | 208° |
| 2026-05-06 14:19 | 19.62434 | 124.47377 | 37926 ft | 476 kts | 208° |
| 2026-05-06 14:20 | 19.56602 | 124.44050 | 37926 ft | 476 kts | 208° |
| 2026-05-06 14:20 | 19.50789 | 124.40736 | 37926 ft | 476 kts | 208° |
| 2026-05-06 14:21 | 19.44990 | 124.37432 | 37926 ft | 476 kts | 208° |
| 2026-05-06 14:21 | 19.39170 | 124.34120 | 37925 ft | 476 kts | 207° |
| 2026-05-06 14:22 | 19.33393 | 124.30834 | 37926 ft | 476 kts | 207° |
| 2026-05-06 14:22 | 19.27572 | 124.27528 | 37926 ft | 476 kts | 207° |
| 2026-05-06 14:23 | 19.21737 | 124.24214 | 37926 ft | 476 kts | 207° |
| 2026-05-06 14:23 | 19.15919 | 124.20915 | 37926 ft | 476 kts | 207° |
| 2026-05-06 14:24 | 19.10096 | 124.17614 | 37926 ft | 476 kts | 207° |
| 2026-05-06 14:24 | 19.04277 | 124.14318 | 37926 ft | 476 kts | 207° |
| 2026-05-06 14:25 | 18.98459 | 124.11027 | 37927 ft | 474 kts | 208° |
| 2026-05-06 14:25 | 18.92707 | 124.07775 | 37927 ft | 471 kts | 208° |
| 2026-05-06 14:26 | 18.86973 | 124.04535 | 37927 ft | 466 kts | 208° |
| 2026-05-06 14:26 | 18.81263 | 124.01311 | 37926 ft | 466 kts | 208° |
| 2026-05-06 14:27 | 18.75541 | 123.98082 | 37926 ft | 466 kts | 208° |
| 2026-05-06 14:27 | 18.69841 | 123.94868 | 37926 ft | 466 kts | 208° |
| 2026-05-06 14:28 | 18.64162 | 123.91670 | 37926 ft | 465 kts | 208° |
| 2026-05-06 14:28 | 18.58480 | 123.88471 | 37926 ft | 466 kts | 208° |
| 2026-05-06 14:29 | 18.52786 | 123.85268 | 37926 ft | 465 kts | 208° |
| 2026-05-06 14:29 | 18.47107 | 123.82077 | 37925 ft | 466 kts | 208° |
| 2026-05-06 14:30 | 18.41386 | 123.78864 | 37926 ft | 466 kts | 208° |
| 2026-05-06 14:30 | 18.35691 | 123.75669 | 37926 ft | 466 kts | 208° |
| 2026-05-06 14:31 | 18.30002 | 123.72478 | 37926 ft | 465 kts | 208° |
| 2026-05-06 14:31 | 18.24297 | 123.69282 | 37926 ft | 466 kts | 208° |
| 2026-05-06 14:32 | 18.18605 | 123.66095 | 37926 ft | 466 kts | 208° |
| 2026-05-06 14:32 | 18.12898 | 123.62901 | 37926 ft | 466 kts | 208° |
| 2026-05-06 14:33 | 18.07213 | 123.59724 | 37926 ft | 466 kts | 208° |
| 2026-05-06 14:33 | 18.01497 | 123.56530 | 37926 ft | 466 kts | 208° |
| 2026-05-06 14:34 | 17.95811 | 123.53355 | 37926 ft | 466 kts | 208° |
| 2026-05-06 14:34 | 17.90101 | 123.50169 | 37926 ft | 466 kts | 208° |
| 2026-05-06 14:35 | 17.84413 | 123.46999 | 37926 ft | 465 kts | 208° |
| 2026-05-06 14:35 | 17.78718 | 123.43825 | 37926 ft | 465 kts | 208° |
| 2026-05-06 14:36 | 17.73035 | 123.40662 | 37926 ft | 465 kts | 208° |
| 2026-05-06 14:36 | 17.67308 | 123.37473 | 37926 ft | 466 kts | 208° |
| 2026-05-06 14:37 | 17.61600 | 123.34299 | 37925 ft | 466 kts | 208° |
| 2026-05-06 14:37 | 17.55916 | 123.31146 | 37926 ft | 466 kts | 207° |
| 2026-05-06 14:38 | 17.50168 | 123.27961 | 37926 ft | 466 kts | 207° |
| 2026-05-06 14:38 | 17.44490 | 123.24815 | 37926 ft | 466 kts | 207° |
| 2026-05-06 14:39 | 17.38796 | 123.21660 | 37926 ft | 466 kts | 207° |
| 2026-05-06 14:39 | 17.33051 | 123.18478 | 37926 ft | 466 kts | 207° |
| 2026-05-06 14:40 | 17.27353 | 123.15325 | 37926 ft | 466 kts | 208° |
| 2026-05-06 14:40 | 17.21655 | 123.12174 | 37926 ft | 466 kts | 207° |
| 2026-05-06 14:41 | 17.15946 | 123.09018 | 37926 ft | 466 kts | 207° |
| 2026-05-06 14:41 | 17.10207 | 123.05846 | 37925 ft | 467 kts | 207° |
| 2026-05-06 14:42 | 17.04486 | 123.02685 | 37925 ft | 468 kts | 206° |
| 2026-05-06 14:42 | 16.98769 | 122.99531 | 37925 ft | 469 kts | 206° |
| 2026-05-06 14:43 | 16.93006 | 122.96357 | 37925 ft | 470 kts | 205° |
| 2026-05-06 14:43 | 16.87242 | 122.93187 | 37926 ft | 470 kts | 205° |
| 2026-05-06 14:44 | 16.81479 | 122.90017 | 37926 ft | 471 kts | 205° |
| 2026-05-06 14:45 | 16.72827 | 122.85261 | 37930 ft | 471 kts | 205° |
| 2026-05-06 14:45 | 16.67031 | 122.82078 | 37943 ft | 471 kts | 205° |
| 2026-05-06 14:46 | 16.61240 | 122.78899 | 37960 ft | 471 kts | 205° |
| 2026-05-06 14:46 | 16.55502 | 122.75749 | 37971 ft | 471 kts | 205° |
| 2026-05-06 14:47 | 16.49711 | 122.72572 | 37977 ft | 471 kts | 205° |
| 2026-05-06 14:47 | 16.43912 | 122.69393 | 37979 ft | 471 kts | 205° |
| 2026-05-06 14:48 | 16.38156 | 122.66245 | 37979 ft | 471 kts | 205° |
| 2026-05-06 14:48 | 16.32369 | 122.63084 | 37979 ft | 471 kts | 205° |
| 2026-05-06 14:49 | 16.26544 | 122.59901 | 37979 ft | 471 kts | 205° |
| 2026-05-06 14:49 | 16.20778 | 122.56752 | 37979 ft | 471 kts | 205° |
| 2026-05-06 14:50 | 16.14975 | 122.53584 | 37979 ft | 471 kts | 205° |
| 2026-05-06 14:50 | 16.09214 | 122.50442 | 37979 ft | 471 kts | 205° |
| 2026-05-06 14:51 | 16.03451 | 122.47298 | 37516 ft | 467 kts | 205° |
| 2026-05-06 14:51 | 16.00576 | 122.45731 | 36748 ft | 470 kts | 205° |
| 2026-05-06 14:51 | 15.97689 | 122.44159 | 35905 ft | 474 kts | 205° |
| 2026-05-06 14:51 | 15.94761 | 122.42565 | 35079 ft | 476 kts | 205° |
| 2026-05-06 14:52 | 15.91829 | 122.40969 | 34252 ft | 478 kts | 205° |
| 2026-05-06 14:52 | 15.88892 | 122.39372 | 33401 ft | 481 kts | 205° |
| 2026-05-06 14:52 | 15.85954 | 122.37775 | 32498 ft | 484 kts | 205° |
| 2026-05-06 14:52 | 15.82949 | 122.36144 | 31526 ft | 488 kts | 206° |
| 2026-05-06 14:53 | 15.79974 | 122.34529 | 30629 ft | 490 kts | 206° |
| 2026-05-06 14:53 | 15.76981 | 122.32903 | 29881 ft | 488 kts | 206° |
| 2026-05-06 14:53 | 15.73995 | 122.31278 | 29213 ft | 484 kts | 206° |
| 2026-05-06 14:53 | 15.71020 | 122.29662 | 28619 ft | 479 kts | 206° |
| 2026-05-06 14:54 | 15.68097 | 122.28073 | 28063 ft | 473 kts | 206° |
| 2026-05-06 14:54 | 15.65213 | 122.26506 | 27520 ft | 467 kts | 207° |
| 2026-05-06 14:54 | 15.62372 | 122.24964 | 26990 ft | 462 kts | 207° |
| 2026-05-06 14:54 | 15.59534 | 122.23424 | 26456 ft | 456 kts | 207° |
| 2026-05-06 14:55 | 15.56767 | 122.21923 | 25937 ft | 451 kts | 207° |
| 2026-05-06 14:55 | 15.54003 | 122.20425 | 25417 ft | 446 kts | 207° |
| 2026-05-06 14:55 | 15.51281 | 122.18950 | 24900 ft | 441 kts | 207° |
| 2026-05-06 14:55 | 15.48563 | 122.17477 | 24385 ft | 437 kts | 207° |
| 2026-05-06 14:56 | 15.45896 | 122.16032 | 23876 ft | 432 kts | 208° |
| 2026-05-06 14:56 | 15.43271 | 122.14611 | 23374 ft | 428 kts | 208° |
| 2026-05-06 14:56 | 15.40647 | 122.13190 | 22868 ft | 424 kts | 208° |
| 2026-05-06 14:56 | 15.38029 | 122.11773 | 22362 ft | 421 kts | 208° |
| 2026-05-06 14:57 | 15.35466 | 122.10386 | 21861 ft | 417 kts | 208° |
| 2026-05-06 14:57 | 15.32907 | 122.09001 | 21361 ft | 414 kts | 208° |
| 2026-05-06 14:57 | 15.30381 | 122.07635 | 20864 ft | 411 kts | 208° |
| 2026-05-06 14:57 | 15.27878 | 122.06282 | 20369 ft | 408 kts | 209° |
| 2026-05-06 14:58 | 15.25342 | 122.04910 | 19863 ft | 405 kts | 209° |
| 2026-05-06 14:58 | 15.22889 | 122.03585 | 19371 ft | 403 kts | 209° |
| 2026-05-06 14:58 | 15.20407 | 122.02243 | 18871 ft | 400 kts | 209° |
| 2026-05-06 14:58 | 15.17955 | 122.00919 | 18373 ft | 398 kts | 209° |
| 2026-05-06 14:59 | 15.15519 | 121.99603 | 17876 ft | 395 kts | 210° |
| 2026-05-06 14:59 | 15.13087 | 121.98289 | 17377 ft | 393 kts | 210° |
| 2026-05-06 14:59 | 15.10698 | 121.96965 | 16905 ft | 388 kts | 214° |
| 2026-05-06 14:59 | 15.08704 | 121.95197 | 16613 ft | 372 kts | 232° |
| 2026-05-06 15:00 | 15.07135 | 121.93149 | 16426 ft | 359 kts | 237° |
| 2026-05-06 15:00 | 15.05688 | 121.91107 | 16238 ft | 348 kts | 237° |
| 2026-05-06 15:00 | 15.04290 | 121.89114 | 16054 ft | 338 kts | 237° |
| 2026-05-06 15:00 | 15.02922 | 121.87163 | 15869 ft | 328 kts | 237° |
| 2026-05-06 15:01 | 15.01601 | 121.85282 | 15586 ft | 323 kts | 237° |
| 2026-05-06 15:01 | 15.00297 | 121.83423 | 15213 ft | 320 kts | 237° |
| 2026-05-06 15:01 | 14.98996 | 121.81567 | 14837 ft | 318 kts | 237° |
| 2026-05-06 15:01 | 14.97699 | 121.79713 | 14468 ft | 315 kts | 237° |
| 2026-05-06 15:02 | 14.96427 | 121.77894 | 14106 ft | 313 kts | 238° |
| 2026-05-06 15:02 | 14.95162 | 121.76084 | 13742 ft | 310 kts | 238° |
| 2026-05-06 15:02 | 14.93911 | 121.74290 | 13386 ft | 307 kts | 238° |
| 2026-05-06 15:02 | 14.92683 | 121.72522 | 13058 ft | 303 kts | 237° |
| 2026-05-06 15:03 | 14.91466 | 121.70755 | 12772 ft | 298 kts | 237° |
| 2026-05-06 15:03 | 14.90271 | 121.69020 | 12399 ft | 296 kts | 238° |
| 2026-05-06 15:03 | 14.89074 | 121.67286 | 12000 ft | 295 kts | 238° |
| 2026-05-06 15:03 | 14.87900 | 121.65586 | 11608 ft | 294 kts | 238° |
| 2026-05-06 15:04 | 14.86710 | 121.63868 | 11199 ft | 294 kts | 238° |
| 2026-05-06 15:04 | 14.85514 | 121.62142 | 10789 ft | 294 kts | 238° |
| 2026-05-06 15:04 | 14.84334 | 121.60442 | 10381 ft | 294 kts | 238° |
| 2026-05-06 15:04 | 14.83153 | 121.58736 | 9977 ft | 294 kts | 237° |
| 2026-05-06 15:05 | 14.82756 | 121.58163 | 9841 ft | 293 kts | 237° |
| 2026-05-06 15:05 | 14.78309 | 121.51685 | 8332 ft | 293 kts | 237° |
| 2026-05-06 15:06 | 14.77145 | 121.49970 | 8031 ft | 292 kts | 237° |
| 2026-05-06 15:06 | 14.75967 | 121.48242 | 7999 ft | 295 kts | 233° |
| 2026-05-06 15:06 | 14.74506 | 121.46780 | 8000 ft | 297 kts | 221° |
| 2026-05-06 15:06 | 14.72860 | 121.45486 | 7999 ft | 298 kts | 218° |
| 2026-05-06 15:07 | 14.71186 | 121.44223 | 7999 ft | 298 kts | 218° |
| 2026-05-06 15:07 | 14.69497 | 121.42956 | 7999 ft | 299 kts | 217° |
| 2026-05-06 15:07 | 14.67821 | 121.41701 | 8000 ft | 298 kts | 218° |
| 2026-05-06 15:07 | 14.66151 | 121.40455 | 7999 ft | 298 kts | 218° |
| 2026-05-06 15:08 | 14.64471 | 121.39204 | 7999 ft | 298 kts | 217° |
| 2026-05-06 15:08 | 14.62795 | 121.37957 | 7999 ft | 298 kts | 218° |
| 2026-05-06 15:08 | 14.61122 | 121.36718 | 7998 ft | 297 kts | 217° |
| 2026-05-06 15:08 | 14.59440 | 121.35471 | 7997 ft | 295 kts | 217° |
| 2026-05-06 15:09 | 14.57813 | 121.34261 | 7905 ft | 284 kts | 217° |
| 2026-05-06 15:09 | 14.56230 | 121.33079 | 7743 ft | 276 kts | 217° |
| 2026-05-06 15:09 | 14.54702 | 121.31945 | 7583 ft | 268 kts | 217° |
| 2026-05-06 15:09 | 14.53212 | 121.30836 | 7425 ft | 259 kts | 217° |
| 2026-05-06 15:10 | 14.51785 | 121.29763 | 7264 ft | 252 kts | 217° |
| 2026-05-06 15:10 | 14.50381 | 121.28701 | 7019 ft | 248 kts | 218° |
| 2026-05-06 15:10 | 14.48997 | 121.27660 | 6731 ft | 246 kts | 217° |
| 2026-05-06 15:10 | 14.47733 | 121.26502 | 6420 ft | 244 kts | 231° |
| 2026-05-06 15:11 | 14.46705 | 121.25113 | 6114 ft | 243 kts | 236° |
| 2026-05-06 15:11 | 14.45736 | 121.23676 | 5823 ft | 242 kts | 237° |
| 2026-05-06 15:11 | 14.44802 | 121.22242 | 5507 ft | 242 kts | 237° |
| 2026-05-06 15:11 | 14.43871 | 121.20797 | 5212 ft | 241 kts | 237° |
| 2026-05-06 15:12 | 14.42960 | 121.19368 | 5012 ft | 239 kts | 237° |
| 2026-05-06 15:12 | 14.42046 | 121.17923 | 5003 ft | 240 kts | 238° |
| 2026-05-06 15:12 | 14.41150 | 121.16515 | 4912 ft | 236 kts | 237° |
| 2026-05-06 15:12 | 14.40249 | 121.15086 | 4617 ft | 236 kts | 238° |
| 2026-05-06 15:13 | 14.39349 | 121.13663 | 4488 ft | 237 kts | 238° |
| 2026-05-06 15:13 | 14.38449 | 121.12244 | 4363 ft | 237 kts | 237° |
| 2026-05-06 15:13 | 14.37556 | 121.10812 | 4238 ft | 237 kts | 237° |
| 2026-05-06 15:13 | 14.36682 | 121.09384 | 4114 ft | 236 kts | 238° |
| 2026-05-06 15:14 | 14.35790 | 121.07935 | 4006 ft | 235 kts | 237° |
| 2026-05-06 15:14 | 14.34923 | 121.06529 | 4002 ft | 236 kts | 238° |
| 2026-05-06 15:14 | 14.34042 | 121.05096 | 4000 ft | 235 kts | 237° |
| 2026-05-06 15:14 | 14.33170 | 121.03660 | 3999 ft | 235 kts | 237° |
| 2026-05-06 15:15 | 14.32297 | 121.02227 | 3999 ft | 235 kts | 238° |
| 2026-05-06 15:15 | 14.31417 | 121.00803 | 3999 ft | 235 kts | 238° |
| 2026-05-06 15:15 | 14.30794 | 120.99264 | 3994 ft | 234 kts | 259° |
| 2026-05-06 15:15 | 14.30583 | 120.97603 | 3999 ft | 234 kts | 266° |
| 2026-05-06 15:16 | 14.30470 | 120.95947 | 4000 ft | 232 kts | 268° |
| 2026-05-06 15:16 | 14.30369 | 120.94281 | 3997 ft | 232 kts | 267° |
| 2026-05-06 15:16 | 14.30273 | 120.92623 | 3991 ft | 231 kts | 268° |
| 2026-05-06 15:16 | 14.30175 | 120.90971 | 3830 ft | 232 kts | 268° |
| 2026-05-06 15:17 | 14.30088 | 120.89299 | 3608 ft | 230 kts | 267° |
| 2026-05-06 15:17 | 14.30001 | 120.87670 | 3336 ft | 229 kts | 268° |
| 2026-05-06 15:17 | 14.30013 | 120.86028 | 3145 ft | 224 kts | 284° |
| 2026-05-06 15:17 | 14.30706 | 120.84671 | 2994 ft | 215 kts | 316° |
| 2026-05-06 15:18 | 14.31823 | 120.83691 | 2816 ft | 210 kts | 325° |
| 2026-05-06 15:18 | 14.33027 | 120.82816 | 2568 ft | 210 kts | 327° |
| 2026-05-06 15:18 | 14.34212 | 120.82032 | 2557 ft | 194 kts | 337° |
| 2026-05-06 15:18 | 14.35448 | 120.81878 | 2511 ft | 171 kts | 14° |
| 2026-05-06 15:19 | 14.36499 | 120.82276 | 2487 ft | 151 kts | 26° |
| 2026-05-06 15:19 | 14.37459 | 120.82752 | 2497 ft | 157 kts | 28° |
| 2026-05-06 15:19 | 14.38448 | 120.83249 | 2501 ft | 159 kts | 28° |
| 2026-05-06 15:19 | 14.39435 | 120.83744 | 2497 ft | 160 kts | 28° |
| 2026-05-06 15:20 | 14.40435 | 120.84290 | 2510 ft | 164 kts | 37° |
| 2026-05-06 15:20 | 14.41263 | 120.85088 | 2498 ft | 163 kts | 52° |
| 2026-05-06 15:20 | 14.41947 | 120.86039 | 2466 ft | 164 kts | 58° |
| 2026-05-06 15:20 | 14.42551 | 120.87018 | 2339 ft | 158 kts | 60° |
| 2026-05-06 15:21 | 14.43094 | 120.87957 | 2185 ft | 145 kts | 60° |
| 2026-05-06 15:21 | 14.43589 | 120.88834 | 2091 ft | 141 kts | 61° |
| 2026-05-06 15:21 | 14.44077 | 120.89714 | 1961 ft | 139 kts | 61° |
| 2026-05-06 15:21 | 14.44552 | 120.90575 | 1836 ft | 139 kts | 60° |
| 2026-05-06 15:22 | 14.45035 | 120.91441 | 1709 ft | 138 kts | 62° |
| 2026-05-06 15:22 | 14.45506 | 120.92296 | 1711 ft | 138 kts | 61° |
| 2026-05-06 15:22 | 14.45983 | 120.93157 | 1606 ft | 138 kts | 61° |
| 2026-05-06 15:22 | 14.46462 | 120.94024 | 1422 ft | 138 kts | 62° |
| 2026-05-06 15:23 | 14.46937 | 120.94880 | 1239 ft | 137 kts | 62° |
| 2026-05-06 15:23 | 14.47410 | 120.95732 | 1062 ft | 137 kts | 62° |
| 2026-05-06 15:23 | 14.47879 | 120.96574 | 882 ft | 137 kts | 60° |
| 2026-05-06 15:23 | 14.48358 | 120.97425 | 693 ft | 136 kts | 62° |
| 2026-05-06 15:24 | 14.48817 | 120.98273 | 562 ft | 136 kts | 61° |
| 2026-05-06 15:24 | 14.49286 | 120.99117 | 412 ft | 136 kts | 61° |
| 2026-05-06 15:24 | 14.49760 | 120.99960 | 175 ft | 134 kts | 62° |
| 2026-05-06 15:24 | 14.50201 | 121.00764 | 84 ft | 116 kts | 61° |
| 2026-05-06 15:25 | 14.50519 | 121.01338 | 84 ft | 66 kts | 60° |
| 2026-05-06 15:25 | 14.50682 | 121.01622 | 84 ft | 32 kts | 54° |
| 2026-05-06 15:25 | 14.50799 | 121.01746 | 84 ft | 17 kts | 38° |
| 2026-05-06 15:25 | 14.50849 | 121.01785 | 84 ft | 5 kts | 29° |
| 2026-05-06 15:26 | 14.50879 | 121.01788 | 84 ft | 4 kts | 343° |
| 2026-05-06 15:26 | 14.50902 | 121.01763 | 84 ft | 5 kts | 288° |
| 2026-05-06 15:26 | 14.50894 | 121.01723 | 84 ft | 6 kts | 241° |
| 2026-05-06 15:26 | 14.50871 | 121.01680 | 84 ft | 7 kts | 241° |
| 2026-05-06 15:27 | 14.50844 | 121.01630 | 84 ft | 8 kts | 241° |
| 2026-05-06 15:27 | 14.50813 | 121.01575 | 84 ft | 9 kts | 239° |
| 2026-05-06 15:27 | 14.50779 | 121.01515 | 84 ft | 10 kts | 239° |
| 2026-05-06 15:27 | 14.50742 | 121.01450 | 84 ft | 11 kts | 240° |
| 2026-05-06 15:28 | 14.50703 | 121.01379 | 84 ft | 11 kts | 240° |
| 2026-05-06 15:28 | 14.50661 | 121.01305 | 84 ft | 12 kts | 240° |
| 2026-05-06 15:28 | 14.50618 | 121.01226 | 84 ft | 12 kts | 240° |
| 2026-05-06 15:28 | 14.50573 | 121.01144 | 84 ft | 13 kts | 240° |
| 2026-05-06 15:29 | 14.50526 | 121.01060 | 84 ft | 13 kts | 240° |
| 2026-05-06 15:29 | 14.50477 | 121.00974 | 84 ft | 14 kts | 239° |
| 2026-05-06 15:29 | 14.50429 | 121.00885 | 84 ft | 14 kts | 240° |
| 2026-05-06 15:29 | 14.50382 | 121.00800 | 84 ft | 11 kts | 245° |
| 2026-05-06 15:30 | 14.50383 | 121.00715 | 84 ft | 12 kts | 282° |
| 2026-05-06 15:30 | 14.50379 | 121.00645 | 84 ft | 9 kts | 240° |
| 2026-05-06 15:30 | 14.50343 | 121.00583 | 84 ft | 9 kts | 238° |
| 2026-05-06 15:30 | 14.50309 | 121.00522 | 84 ft | 10 kts | 240° |
| 2026-05-06 15:31 | 14.50272 | 121.00456 | 84 ft | 11 kts | 240° |
| 2026-05-06 15:31 | 14.50233 | 121.00385 | 84 ft | 11 kts | 241° |
| 2026-05-06 15:31 | 14.50213 | 121.00318 | 84 ft | 10 kts | 289° |
| 2026-05-06 15:32 | 14.50312 | 121.00295 | 84 ft | 5 kts | 74° |
| 2026-05-06 15:32 | 14.50327 | 121.00328 | 84 ft | 5 kts | 49° |
| 2026-05-06 15:32 | 14.50348 | 121.00352 | 84 ft | 3 kts | 49° |
| 2026-05-06 15:32 | 14.50366 | 121.00375 | 84 ft | 3 kts | 49° |
| 2026-05-06 15:33 | 14.50376 | 121.00388 | 84 ft | 0 kts | 50° |